sensor_id;sensor_type;location;lat;lon;timestamp;pressure;altitude;pressure_sealevel;temperature;humidity
70468;BME280;57934;51.532;7.684;2023-05-17T00:02:08;101042.50;;;8.53;nan
70468;BME280;57934;51.532;7.684;2023-05-17T00:04:34;101047.59;;;8.55;nan
70468;BME280;57934;51.532;7.684;2023-05-17T00:07:00;101043.47;;;8.52;nan
70468;BME280;57934;51.532;7.684;2023-05-17T00:09:26;101037.53;;;8.42;nan
70468;BME280;57934;51.532;7.684;2023-05-17T00:11:52;101042.16;;;8.48;nan
70468;BME280;57934;51.532;7.684;2023-05-17T00:14:18;101041.50;;;8.54;nan
70468;BME280;57934;51.532;7.684;2023-05-17T00:16:44;101048.72;;;8.44;nan
70468;BME280;57934;51.532;7.684;2023-05-17T00:19:10;101049.53;;;8.45;nan
70468;BME280;57934;51.532;7.684;2023-05-17T00:21:36;101043.78;;;8.41;nan
70468;BME280;57934;51.532;7.684;2023-05-17T00:24:02;101045.91;;;8.38;nan
70468;BME280;57934;51.532;7.684;2023-05-17T00:26:28;101046.50;;;8.31;nan
70468;BME280;57934;51.532;7.684;2023-05-17T00:28:54;101048.47;;;8.29;nan
70468;BME280;57934;51.532;7.684;2023-05-17T00:31:20;101052.09;;;8.28;nan
70468;BME280;57934;51.532;7.684;2023-05-17T00:33:46;101051.06;;;8.21;nan
70468;BME280;57934;51.532;7.684;2023-05-17T00:36:12;101058.13;;;8.21;nan
70468;BME280;57934;51.532;7.684;2023-05-17T00:38:38;101051.06;;;8.21;nan
70468;BME280;57934;51.532;7.684;2023-05-17T00:41:04;101050.88;;;8.15;nan
70468;BME280;57934;51.532;7.684;2023-05-17T00:43:30;101052.72;;;8.22;nan
70468;BME280;57934;51.532;7.684;2023-05-17T00:45:56;101054.03;;;8.18;nan
70468;BME280;57934;51.532;7.684;2023-05-17T00:48:23;101054.13;;;8.08;nan
70468;BME280;57934;51.532;7.684;2023-05-17T00:50:52;101052.66;;;8.06;nan
70468;BME280;57934;51.532;7.684;2023-05-17T00:53:19;101057.78;;;8.16;nan
70468;BME280;57934;51.532;7.684;2023-05-17T00:55:45;101056.78;;;8.08;nan
70468;BME280;57934;51.532;7.684;2023-05-17T00:58:12;101052.31;;;8.01;nan
70468;BME280;57934;51.532;7.684;2023-05-17T01:00:38;101049.38;;;8.04;nan
70468;BME280;57934;51.532;7.684;2023-05-17T01:03:04;101046.56;;;8.05;nan
70468;BME280;57934;51.532;7.684;2023-05-17T01:05:30;101056.53;;;7.94;nan
70468;BME280;57934;51.532;7.684;2023-05-17T01:07:56;101049.31;;;7.96;nan
70468;BME280;57934;51.532;7.684;2023-05-17T01:10:34;101051.75;;;7.89;nan
70468;BME280;57934;51.532;7.684;2023-05-17T01:13:08;101052.00;;;8.04;nan
70468;BME280;57934;51.532;7.684;2023-05-17T01:15:42;101046.69;;;7.96;nan
70468;BME280;57934;51.532;7.684;2023-05-17T01:18:34;101049.00;;;7.99;nan
70468;BME280;57934;51.532;7.684;2023-05-17T01:21:16;101046.53;;;7.97;nan
70468;BME280;57934;51.532;7.684;2023-05-17T01:24:06;101045.56;;;7.98;nan
70468;BME280;57934;51.532;7.684;2023-05-17T01:26:40;101051.91;;;7.87;nan
70468;BME280;57934;51.532;7.684;2023-05-17T01:29:08;101052.06;;;7.86;nan
70468;BME280;57934;51.532;7.684;2023-05-17T01:31:36;101057.00;;;7.89;nan
70468;BME280;57934;51.532;7.684;2023-05-17T01:34:09;101059.47;;;7.91;nan
70468;BME280;57934;51.532;7.684;2023-05-17T01:36:35;101055.69;;;7.93;nan
70468;BME280;57934;51.532;7.684;2023-05-17T01:39:02;101049.94;;;7.89;nan
70468;BME280;57934;51.532;7.684;2023-05-17T01:41:36;101054.72;;;7.94;nan
70468;BME280;57934;51.532;7.684;2023-05-17T01:47:12;101063.66;;;7.75;nan
70468;BME280;57934;51.532;7.684;2023-05-17T01:49:46;101070.34;;;7.70;nan
70468;BME280;57934;51.532;7.684;2023-05-17T01:52:27;101067.94;;;7.76;nan
70468;BME280;57934;51.532;7.684;2023-05-17T01:57:47;101072.88;;;7.79;nan
70468;BME280;57934;51.532;7.684;2023-05-17T02:00:18;101076.75;;;7.75;nan
70468;BME280;57934;51.532;7.684;2023-05-17T02:02:45;101072.19;;;7.77;nan
70468;BME280;57934;51.532;7.684;2023-05-17T02:05:11;101078.44;;;7.76;nan
70468;BME280;57934;51.532;7.684;2023-05-17T02:07:39;101077.41;;;7.69;nan
70468;BME280;57934;51.532;7.684;2023-05-17T02:10:05;101082.78;;;7.68;nan
70468;BME280;57934;51.532;7.684;2023-05-17T02:12:31;101085.94;;;7.71;nan
70468;BME280;57934;51.532;7.684;2023-05-17T02:14:57;101090.22;;;7.72;nan
70468;BME280;57934;51.532;7.684;2023-05-17T02:17:23;101089.53;;;7.70;nan
70468;BME280;57934;51.532;7.684;2023-05-17T02:19:49;101094.81;;;7.70;nan
70468;BME280;57934;51.532;7.684;2023-05-17T02:22:15;101088.56;;;7.71;nan
70468;BME280;57934;51.532;7.684;2023-05-17T02:24:41;101091.88;;;7.73;nan
70468;BME280;57934;51.532;7.684;2023-05-17T02:27:07;101088.13;;;7.76;nan
70468;BME280;57934;51.532;7.684;2023-05-17T02:29:33;101093.88;;;7.79;nan
70468;BME280;57934;51.532;7.684;2023-05-17T02:31:59;101091.41;;;7.78;nan
70468;BME280;57934;51.532;7.684;2023-05-17T02:34:25;101094.75;;;7.62;nan
70468;BME280;57934;51.532;7.684;2023-05-17T02:36:51;101102.47;;;7.63;nan
70468;BME280;57934;51.532;7.684;2023-05-17T02:39:17;101102.66;;;7.70;nan
70468;BME280;57934;51.532;7.684;2023-05-17T02:41:44;101102.50;;;7.72;nan
70468;BME280;57934;51.532;7.684;2023-05-17T02:44:10;101100.53;;;7.65;nan
70468;BME280;57934;51.532;7.684;2023-05-17T02:46:36;101094.63;;;7.72;nan
70468;BME280;57934;51.532;7.684;2023-05-17T02:49:02;101095.00;;;7.77;nan
70468;BME280;57934;51.532;7.684;2023-05-17T02:51:29;101098.34;;;7.87;nan
70468;BME280;57934;51.532;7.684;2023-05-17T02:53:56;101096.88;;;7.93;nan
70468;BME280;57934;51.532;7.684;2023-05-17T02:56:22;101101.59;;;7.81;nan
70468;BME280;57934;51.532;7.684;2023-05-17T02:58:48;101105.72;;;7.83;nan
70468;BME280;57934;51.532;7.684;2023-05-17T03:01:14;101104.72;;;7.84;nan
70468;BME280;57934;51.532;7.684;2023-05-17T03:03:40;101105.41;;;7.86;nan
70468;BME280;57934;51.532;7.684;2023-05-17T03:06:06;101107.69;;;7.89;nan
70468;BME280;57934;51.532;7.684;2023-05-17T03:08:32;101103.59;;;7.87;nan
70468;BME280;57934;51.532;7.684;2023-05-17T03:10:59;101110.16;;;7.83;nan
70468;BME280;57934;51.532;7.684;2023-05-17T03:13:26;101115.19;;;7.76;nan
70468;BME280;57934;51.532;7.684;2023-05-17T03:15:52;101120.53;;;7.67;nan
70468;BME280;57934;51.532;7.684;2023-05-17T03:18:18;101123.66;;;7.70;nan
70468;BME280;57934;51.532;7.684;2023-05-17T03:20:44;101108.06;;;7.69;nan
70468;BME280;57934;51.532;7.684;2023-05-17T03:23:10;101114.16;;;7.69;nan
70468;BME280;57934;51.532;7.684;2023-05-17T03:25:45;101123.81;;;7.69;nan
70468;BME280;57934;51.532;7.684;2023-05-17T03:28:11;101128.31;;;7.76;nan
70468;BME280;57934;51.532;7.684;2023-05-17T03:30:37;101126.03;;;7.81;nan
70468;BME280;57934;51.532;7.684;2023-05-17T03:33:03;101121.69;;;7.90;nan
70468;BME280;57934;51.532;7.684;2023-05-17T03:35:29;101129.69;;;7.88;nan
70468;BME280;57934;51.532;7.684;2023-05-17T03:37:56;101131.19;;;7.91;nan
70468;BME280;57934;51.532;7.684;2023-05-17T03:40:23;101135.75;;;7.89;nan
70468;BME280;57934;51.532;7.684;2023-05-17T03:42:49;101138.69;;;7.86;nan
70468;BME280;57934;51.532;7.684;2023-05-17T03:45:16;101140.66;;;7.84;nan
70468;BME280;57934;51.532;7.684;2023-05-17T03:47:42;101136.41;;;7.83;nan
70468;BME280;57934;51.532;7.684;2023-05-17T03:50:09;101139.22;;;7.89;nan
70468;BME280;57934;51.532;7.684;2023-05-17T03:52:35;101136.22;;;7.84;nan
70468;BME280;57934;51.532;7.684;2023-05-17T03:55:01;101148.59;;;7.92;nan
70468;BME280;57934;51.532;7.684;2023-05-17T03:57:29;101143.19;;;7.94;nan
70468;BME280;57934;51.532;7.684;2023-05-17T03:59:55;101149.78;;;7.98;nan
70468;BME280;57934;51.532;7.684;2023-05-17T04:02:21;101147.66;;;8.01;nan
70468;BME280;57934;51.532;7.684;2023-05-17T04:04:49;101152.47;;;8.14;nan
70468;BME280;57934;51.532;7.684;2023-05-17T04:07:16;101158.13;;;8.19;nan
70468;BME280;57934;51.532;7.684;2023-05-17T04:09:42;101159.13;;;8.26;nan
70468;BME280;57934;51.532;7.684;2023-05-17T04:12:08;101160.00;;;8.35;nan
70468;BME280;57934;51.532;7.684;2023-05-17T04:14:36;101168.41;;;8.39;nan
70468;BME280;57934;51.532;7.684;2023-05-17T04:17:03;101170.66;;;8.33;nan
70468;BME280;57934;51.532;7.684;2023-05-17T04:19:29;101163.16;;;8.39;nan
70468;BME280;57934;51.532;7.684;2023-05-17T04:21:55;101163.53;;;8.44;nan
70468;BME280;57934;51.532;7.684;2023-05-17T04:24:24;101166.66;;;8.47;nan
70468;BME280;57934;51.532;7.684;2023-05-17T04:26:51;101175.84;;;8.43;nan
70468;BME280;57934;51.532;7.684;2023-05-17T04:29:19;101181.16;;;8.59;nan
70468;BME280;57934;51.532;7.684;2023-05-17T04:31:45;101182.00;;;8.60;nan
70468;BME280;57934;51.532;7.684;2023-05-17T04:34:13;101183.47;;;8.63;nan
70468;BME280;57934;51.532;7.684;2023-05-17T04:36:39;101188.28;;;8.67;nan
70468;BME280;57934;51.532;7.684;2023-05-17T04:39:06;101184.19;;;8.73;nan
70468;BME280;57934;51.532;7.684;2023-05-17T04:41:32;101177.41;;;8.70;nan
70468;BME280;57934;51.532;7.684;2023-05-17T04:43:58;101186.31;;;8.77;nan
70468;BME280;57934;51.532;7.684;2023-05-17T04:46:30;101190.13;;;8.83;nan
70468;BME280;57934;51.532;7.684;2023-05-17T04:48:56;101191.94;;;8.82;nan
70468;BME280;57934;51.532;7.684;2023-05-17T04:51:23;101198.72;;;8.93;nan
70468;BME280;57934;51.532;7.684;2023-05-17T04:53:49;101202.34;;;8.92;nan
70468;BME280;57934;51.532;7.684;2023-05-17T04:56:17;101200.53;;;8.93;nan
70468;BME280;57934;51.532;7.684;2023-05-17T04:58:43;101214.00;;;8.98;nan
70468;BME280;57934;51.532;7.684;2023-05-17T05:01:11;101210.31;;;8.74;nan
70468;BME280;57934;51.532;7.684;2023-05-17T05:03:37;101215.22;;;8.69;nan
70468;BME280;57934;51.532;7.684;2023-05-17T05:06:06;101220.84;;;8.74;nan
70468;BME280;57934;51.532;7.684;2023-05-17T05:08:32;101229.34;;;8.68;nan
70468;BME280;57934;51.532;7.684;2023-05-17T05:10:58;101219.78;;;8.59;nan
70468;BME280;57934;51.532;7.684;2023-05-17T05:13:24;101220.97;;;8.65;nan
70468;BME280;57934;51.532;7.684;2023-05-17T05:15:52;101233.44;;;8.63;nan
70468;BME280;57934;51.532;7.684;2023-05-17T05:18:17;101230.19;;;8.69;nan
70468;BME280;57934;51.532;7.684;2023-05-17T05:20:46;101239.69;;;8.70;nan
70468;BME280;57934;51.532;7.684;2023-05-17T05:23:13;101240.00;;;8.67;nan
70468;BME280;57934;51.532;7.684;2023-05-17T05:25:42;101248.81;;;8.83;nan
70468;BME280;57934;51.532;7.684;2023-05-17T05:28:08;101247.50;;;8.88;nan
70468;BME280;57934;51.532;7.684;2023-05-17T05:30:38;101251.13;;;8.87;nan
70468;BME280;57934;51.532;7.684;2023-05-17T05:33:04;101255.56;;;8.86;nan
70468;BME280;57934;51.532;7.684;2023-05-17T05:35:30;101253.94;;;8.93;nan
70468;BME280;57934;51.532;7.684;2023-05-17T05:37:57;101260.72;;;8.96;nan
70468;BME280;57934;51.532;7.684;2023-05-17T05:40:27;101258.16;;;9.20;nan
70468;BME280;57934;51.532;7.684;2023-05-17T05:42:53;101258.19;;;9.37;nan
70468;BME280;57934;51.532;7.684;2023-05-17T05:45:19;101258.72;;;9.65;nan
70468;BME280;57934;51.532;7.684;2023-05-17T05:47:47;101258.22;;;9.61;nan
70468;BME280;57934;51.532;7.684;2023-05-17T05:50:14;101255.78;;;9.68;nan
70468;BME280;57934;51.532;7.684;2023-05-17T05:52:42;101256.94;;;9.65;nan
70468;BME280;57934;51.532;7.684;2023-05-17T05:55:08;101261.38;;;9.81;nan
70468;BME280;57934;51.532;7.684;2023-05-17T05:57:34;101270.28;;;10.13;nan
70468;BME280;57934;51.532;7.684;2023-05-17T06:00:00;101260.56;;;10.30;nan
70468;BME280;57934;51.532;7.684;2023-05-17T06:02:26;101265.50;;;10.00;nan
70468;BME280;57934;51.532;7.684;2023-05-17T06:04:52;101271.44;;;10.10;nan
70468;BME280;57934;51.532;7.684;2023-05-17T06:07:18;101272.44;;;10.34;nan
70468;BME280;57934;51.532;7.684;2023-05-17T06:09:44;101275.50;;;10.62;nan
70468;BME280;57934;51.532;7.684;2023-05-17T06:12:10;101283.81;;;10.90;nan
70468;BME280;57934;51.532;7.684;2023-05-17T06:14:36;101285.41;;;10.51;nan
70468;BME280;57934;51.532;7.684;2023-05-17T06:17:03;101276.22;;;10.31;nan
70468;BME280;57934;51.532;7.684;2023-05-17T06:19:29;101289.56;;;10.38;nan
70468;BME280;57934;51.532;7.684;2023-05-17T06:21:55;101287.38;;;10.58;nan
70468;BME280;57934;51.532;7.684;2023-05-17T06:24:21;101295.81;;;10.53;nan
70468;BME280;57934;51.532;7.684;2023-05-17T06:26:47;101300.56;;;10.58;nan
70468;BME280;57934;51.532;7.684;2023-05-17T06:29:13;101298.44;;;10.61;nan
70468;BME280;57934;51.532;7.684;2023-05-17T06:31:39;101294.84;;;10.30;nan
70468;BME280;57934;51.532;7.684;2023-05-17T06:34:05;101300.25;;;10.44;nan
70468;BME280;57934;51.532;7.684;2023-05-17T06:36:31;101302.91;;;10.44;nan
70468;BME280;57934;51.532;7.684;2023-05-17T06:38:57;101310.47;;;10.31;nan
70468;BME280;57934;51.532;7.684;2023-05-17T06:41:23;101310.97;;;10.35;nan
70468;BME280;57934;51.532;7.684;2023-05-17T06:43:49;101305.06;;;10.33;nan
70468;BME280;57934;51.532;7.684;2023-05-17T06:46:15;101302.53;;;10.56;nan
70468;BME280;57934;51.532;7.684;2023-05-17T06:48:41;101304.19;;;10.65;nan
70468;BME280;57934;51.532;7.684;2023-05-17T06:51:07;101302.59;;;10.95;nan
70468;BME280;57934;51.532;7.684;2023-05-17T06:53:33;101306.09;;;11.27;nan
70468;BME280;57934;51.532;7.684;2023-05-17T06:55:59;101308.59;;;11.28;nan
70468;BME280;57934;51.532;7.684;2023-05-17T06:58:25;101314.78;;;11.04;nan
70468;BME280;57934;51.532;7.684;2023-05-17T07:00:51;101308.16;;;11.08;nan
70468;BME280;57934;51.532;7.684;2023-05-17T07:03:17;101310.94;;;11.15;nan
70468;BME280;57934;51.532;7.684;2023-05-17T07:05:43;101307.34;;;11.70;nan
70468;BME280;57934;51.532;7.684;2023-05-17T07:08:09;101319.03;;;11.84;nan
70468;BME280;57934;51.532;7.684;2023-05-17T07:10:35;101312.94;;;11.75;nan
70468;BME280;57934;51.532;7.684;2023-05-17T07:13:01;101319.72;;;11.46;nan
70468;BME280;57934;51.532;7.684;2023-05-17T07:15:27;101315.03;;;11.26;nan
70468;BME280;57934;51.532;7.684;2023-05-17T07:17:53;101320.63;;;11.62;nan
70468;BME280;57934;51.532;7.684;2023-05-17T07:20:19;101323.38;;;12.00;nan
70468;BME280;57934;51.532;7.684;2023-05-17T07:22:45;101326.31;;;12.05;nan
70468;BME280;57934;51.532;7.684;2023-05-17T07:25:12;101333.66;;;11.94;nan
70468;BME280;57934;51.532;7.684;2023-05-17T07:27:39;101335.13;;;11.66;nan
70468;BME280;57934;51.532;7.684;2023-05-17T07:30:06;101336.69;;;11.52;nan
70468;BME280;57934;51.532;7.684;2023-05-17T07:32:32;101343.53;;;11.38;nan
70468;BME280;57934;51.532;7.684;2023-05-17T07:34:58;101353.88;;;11.48;nan
70468;BME280;57934;51.532;7.684;2023-05-17T07:37:24;101351.16;;;11.25;nan
70468;BME280;57934;51.532;7.684;2023-05-17T07:39:50;101353.28;;;11.38;nan
70468;BME280;57934;51.532;7.684;2023-05-17T07:42:16;101361.69;;;11.33;nan
70468;BME280;57934;51.532;7.684;2023-05-17T07:44:42;101356.25;;;11.35;nan
70468;BME280;57934;51.532;7.684;2023-05-17T07:47:08;101355.31;;;11.19;nan
70468;BME280;57934;51.532;7.684;2023-05-17T07:49:34;101356.97;;;11.12;nan
70468;BME280;57934;51.532;7.684;2023-05-17T07:52:00;101347.56;;;11.18;nan
70468;BME280;57934;51.532;7.684;2023-05-17T07:54:27;101355.47;;;12.87;nan
70468;BME280;57934;51.532;7.684;2023-05-17T07:56:53;101357.69;;;14.00;nan
70468;BME280;57934;51.532;7.684;2023-05-17T07:59:21;101353.22;;;14.01;nan
70468;BME280;57934;51.532;7.684;2023-05-17T08:01:47;101357.13;;;13.83;nan
70468;BME280;57934;51.532;7.684;2023-05-17T08:04:13;101353.50;;;14.55;nan
70468;BME280;57934;51.532;7.684;2023-05-17T08:06:39;101353.06;;;15.63;nan
70468;BME280;57934;51.532;7.684;2023-05-17T08:09:06;101348.88;;;16.02;nan
70468;BME280;57934;51.532;7.684;2023-05-17T08:11:32;101358.38;;;15.63;nan
70468;BME280;57934;51.532;7.684;2023-05-17T08:14:00;101357.09;;;16.27;nan
70468;BME280;57934;51.532;7.684;2023-05-17T08:16:26;101360.88;;;17.17;nan
70468;BME280;57934;51.532;7.684;2023-05-17T08:18:52;101366.44;;;17.02;nan
70468;BME280;57934;51.532;7.684;2023-05-17T08:21:18;101366.59;;;14.85;nan
70468;BME280;57934;51.532;7.684;2023-05-17T08:23:44;101367.53;;;14.28;nan
70468;BME280;57934;51.532;7.684;2023-05-17T08:26:09;101370.81;;;16.57;nan
70468;BME280;57934;51.532;7.684;2023-05-17T08:28:37;101368.97;;;18.94;nan
70468;BME280;57934;51.532;7.684;2023-05-17T08:31:05;101368.91;;;18.82;nan
70468;BME280;57934;51.532;7.684;2023-05-17T08:33:31;101364.78;;;19.53;nan
70468;BME280;57934;51.532;7.684;2023-05-17T08:35:58;101360.94;;;19.79;nan
70468;BME280;57934;51.532;7.684;2023-05-17T08:38:26;101368.50;;;21.41;nan
70468;BME280;57934;51.532;7.684;2023-05-17T08:40:55;101365.34;;;21.61;nan
70468;BME280;57934;51.532;7.684;2023-05-17T08:43:22;101375.66;;;18.03;nan
70468;BME280;57934;51.532;7.684;2023-05-17T08:45:49;101376.63;;;17.83;nan
70468;BME280;57934;51.532;7.684;2023-05-17T08:48:15;101373.84;;;16.93;nan
70468;BME280;57934;51.532;7.684;2023-05-17T08:50:45;101380.72;;;17.79;nan
70468;BME280;57934;51.532;7.684;2023-05-17T08:53:12;101375.38;;;20.32;nan
70468;BME280;57934;51.532;7.684;2023-05-17T08:55:45;101377.00;;;21.27;nan
70468;BME280;57934;51.532;7.684;2023-05-17T08:58:20;101390.09;;;18.27;nan
70468;BME280;57934;51.532;7.684;2023-05-17T09:00:51;101391.00;;;17.24;nan
70468;BME280;57934;51.532;7.684;2023-05-17T09:03:20;101393.94;;;18.06;nan
70468;BME280;57934;51.532;7.684;2023-05-17T09:05:49;101393.53;;;16.73;nan
70468;BME280;57934;51.532;7.684;2023-05-17T09:08:20;101393.31;;;17.65;nan
70468;BME280;57934;51.532;7.684;2023-05-17T09:10:47;101383.94;;;19.68;nan
70468;BME280;57934;51.532;7.684;2023-05-17T09:13:14;101384.44;;;22.39;nan
70468;BME280;57934;51.532;7.684;2023-05-17T09:15:46;101388.72;;;20.73;nan
70468;BME280;57934;51.532;7.684;2023-05-17T09:18:12;101383.81;;;20.47;nan
70468;BME280;57934;51.532;7.684;2023-05-17T09:20:39;101377.41;;;18.72;nan
70468;BME280;57934;51.532;7.684;2023-05-17T09:23:07;101393.19;;;17.92;nan
70468;BME280;57934;51.532;7.684;2023-05-17T09:25:47;101394.13;;;17.08;nan
70468;BME280;57934;51.532;7.684;2023-05-17T09:28:13;101385.56;;;15.65;nan
70468;BME280;57934;51.532;7.684;2023-05-17T09:30:39;101387.88;;;15.26;nan
70468;BME280;57934;51.532;7.684;2023-05-17T09:33:10;101388.81;;;16.28;nan
70468;BME280;57934;51.532;7.684;2023-05-17T09:35:37;101382.66;;;17.07;nan
70468;BME280;57934;51.532;7.684;2023-05-17T09:38:11;101394.81;;;18.25;nan
70468;BME280;57934;51.532;7.684;2023-05-17T09:40:41;101386.63;;;20.64;nan
70468;BME280;57934;51.532;7.684;2023-05-17T09:43:08;101393.69;;;21.40;nan
70468;BME280;57934;51.532;7.684;2023-05-17T09:45:34;101393.94;;;22.13;nan
70468;BME280;57934;51.532;7.684;2023-05-17T09:48:14;101386.81;;;23.52;nan
70468;BME280;57934;51.532;7.684;2023-05-17T09:50:44;101384.63;;;23.27;nan
70468;BME280;57934;51.532;7.684;2023-05-17T09:53:24;101385.34;;;22.28;nan
70468;BME280;57934;51.532;7.684;2023-05-17T09:55:52;101399.03;;;21.81;nan
70468;BME280;57934;51.532;7.684;2023-05-17T09:58:20;101392.94;;;19.74;nan
70468;BME280;57934;51.532;7.684;2023-05-17T10:00:50;101389.47;;;19.18;nan
70468;BME280;57934;51.532;7.684;2023-05-17T10:03:17;101385.50;;;18.84;nan
70468;BME280;57934;51.532;7.684;2023-05-17T10:05:44;101386.31;;;17.64;nan
70468;BME280;57934;51.532;7.684;2023-05-17T10:08:16;101387.47;;;17.37;nan
70468;BME280;57934;51.532;7.684;2023-05-17T10:10:44;101379.84;;;18.74;nan
70468;BME280;57934;51.532;7.684;2023-05-17T10:13:12;101385.47;;;18.41;nan
70468;BME280;57934;51.532;7.684;2023-05-17T10:15:41;101370.09;;;19.41;nan
70468;BME280;57934;51.532;7.684;2023-05-17T10:18:07;101375.66;;;21.81;nan
70468;BME280;57934;51.532;7.684;2023-05-17T10:20:35;101363.28;;;22.98;nan
70468;BME280;57934;51.532;7.684;2023-05-17T10:23:03;101367.97;;;23.74;nan
70468;BME280;57934;51.532;7.684;2023-05-17T10:25:31;101376.53;;;22.66;nan
70468;BME280;57934;51.532;7.684;2023-05-17T10:27:57;101372.19;;;20.53;nan
70468;BME280;57934;51.532;7.684;2023-05-17T10:30:25;101370.59;;;18.76;nan
70468;BME280;57934;51.532;7.684;2023-05-17T10:32:53;101371.06;;;18.42;nan
70468;BME280;57934;51.532;7.684;2023-05-17T10:35:19;101374.91;;;20.11;nan
70468;BME280;57934;51.532;7.684;2023-05-17T10:37:45;101373.28;;;21.39;nan
70468;BME280;57934;51.532;7.684;2023-05-17T10:40:11;101366.63;;;22.16;nan
70468;BME280;57934;51.532;7.684;2023-05-17T10:42:41;101374.13;;;20.22;nan
70468;BME280;57934;51.532;7.684;2023-05-17T10:45:13;101368.00;;;18.88;nan
70468;BME280;57934;51.532;7.684;2023-05-17T10:47:40;101376.31;;;18.55;nan
70468;BME280;57934;51.532;7.684;2023-05-17T10:50:10;101364.72;;;20.55;nan
70468;BME280;57934;51.532;7.684;2023-05-17T10:52:39;101361.63;;;22.92;nan
70468;BME280;57934;51.532;7.684;2023-05-17T10:55:10;101362.50;;;24.28;nan
70468;BME280;57934;51.532;7.684;2023-05-17T10:57:37;101360.34;;;24.62;nan
70468;BME280;57934;51.532;7.684;2023-05-17T11:00:05;101359.13;;;22.52;nan
70468;BME280;57934;51.532;7.684;2023-05-17T11:02:32;101352.28;;;22.44;nan
70468;BME280;57934;51.532;7.684;2023-05-17T11:04:59;101356.38;;;22.30;nan
70468;BME280;57934;51.532;7.684;2023-05-17T11:07:28;101357.00;;;21.75;nan
70468;BME280;57934;51.532;7.684;2023-05-17T11:12:30;101366.41;;;17.67;nan
70468;BME280;57934;51.532;7.684;2023-05-17T11:14:57;101359.91;;;17.95;nan
70468;BME280;57934;51.532;7.684;2023-05-17T11:17:34;101352.94;;;19.61;nan
70468;BME280;57934;51.532;7.684;2023-05-17T11:20:03;101359.13;;;17.94;nan
70468;BME280;57934;51.532;7.684;2023-05-17T11:25:05;101359.34;;;16.16;nan
70468;BME280;57934;51.532;7.684;2023-05-17T11:27:36;101359.28;;;17.03;nan
70468;BME280;57934;51.532;7.684;2023-05-17T11:30:32;101360.34;;;16.88;nan
70468;BME280;57934;51.532;7.684;2023-05-17T11:33:05;101365.03;;;17.00;nan
70468;BME280;57934;51.532;7.684;2023-05-17T11:35:33;101368.66;;;15.79;nan
70468;BME280;57934;51.532;7.684;2023-05-17T11:38:17;101363.84;;;15.55;nan
70468;BME280;57934;51.532;7.684;2023-05-17T11:40:45;101370.09;;;17.28;nan
70468;BME280;57934;51.532;7.684;2023-05-17T11:43:19;101359.47;;;18.29;nan
70468;BME280;57934;51.532;7.684;2023-05-17T11:45:51;101360.25;;;18.80;nan
70468;BME280;57934;51.532;7.684;2023-05-17T11:48:19;101360.56;;;18.22;nan
70468;BME280;57934;51.532;7.684;2023-05-17T11:50:47;101361.47;;;17.19;nan
70468;BME280;57934;51.532;7.684;2023-05-17T11:53:14;101361.97;;;16.96;nan
70468;BME280;57934;51.532;7.684;2023-05-17T11:55:44;101363.63;;;16.37;nan
70468;BME280;57934;51.532;7.684;2023-05-17T11:58:14;101361.56;;;15.99;nan
70468;BME280;57934;51.532;7.684;2023-05-17T12:00:41;101361.00;;;15.49;nan
70468;BME280;57934;51.532;7.684;2023-05-17T12:03:21;101358.31;;;16.17;nan
70468;BME280;57934;51.532;7.684;2023-05-17T12:05:49;101349.53;;;16.43;nan
70468;BME280;57934;51.532;7.684;2023-05-17T12:08:18;101349.72;;;16.29;nan
70468;BME280;57934;51.532;7.684;2023-05-17T12:10:48;101347.88;;;16.36;nan
70468;BME280;57934;51.532;7.684;2023-05-17T12:13:15;101355.22;;;15.94;nan
70468;BME280;57934;51.532;7.684;2023-05-17T12:15:44;101365.06;;;15.45;nan
70468;BME280;57934;51.532;7.684;2023-05-17T12:18:12;101359.59;;;15.12;nan
70468;BME280;57934;51.532;7.684;2023-05-17T12:20:38;101359.84;;;15.17;nan
70468;BME280;57934;51.532;7.684;2023-05-17T12:23:04;101358.63;;;14.85;nan
70468;BME280;57934;51.532;7.684;2023-05-17T12:25:30;101357.00;;;15.73;nan
70468;BME280;57934;51.532;7.684;2023-05-17T12:28:15;101354.03;;;15.48;nan
70468;BME280;57934;51.532;7.684;2023-05-17T12:30:42;101353.66;;;15.10;nan
70468;BME280;57934;51.532;7.684;2023-05-17T12:33:08;101366.88;;;15.38;nan
70468;BME280;57934;51.532;7.684;2023-05-17T12:35:34;101357.88;;;15.87;nan
70468;BME280;57934;51.532;7.684;2023-05-17T12:38:01;101357.72;;;16.29;nan
70468;BME280;57934;51.532;7.684;2023-05-17T12:40:27;101352.78;;;16.12;nan
70468;BME280;57934;51.532;7.684;2023-05-17T12:43:02;101351.13;;;15.91;nan
70468;BME280;57934;51.532;7.684;2023-05-17T12:45:28;101355.84;;;16.22;nan
70468;BME280;57934;51.532;7.684;2023-05-17T12:47:54;101356.03;;;15.94;nan
70468;BME280;57934;51.532;7.684;2023-05-17T12:50:27;101350.47;;;15.89;nan
70468;BME280;57934;51.532;7.684;2023-05-17T12:52:55;101361.56;;;16.06;nan
70468;BME280;57934;51.532;7.684;2023-05-17T12:55:21;101358.72;;;16.54;nan
70468;BME280;57934;51.532;7.684;2023-05-17T12:57:51;101360.34;;;16.49;nan
70468;BME280;57934;51.532;7.684;2023-05-17T13:00:18;101371.66;;;15.56;nan
70468;BME280;57934;51.532;7.684;2023-05-17T13:02:44;101363.38;;;15.31;nan
70468;BME280;57934;51.532;7.684;2023-05-17T13:05:16;101366.59;;;15.20;nan
70468;BME280;57934;51.532;7.684;2023-05-17T13:07:48;101358.63;;;15.20;nan
70468;BME280;57934;51.532;7.684;2023-05-17T13:10:26;101363.94;;;15.20;nan
70468;BME280;57934;51.532;7.684;2023-05-17T13:15:39;101355.47;;;15.03;nan
70468;BME280;57934;51.532;7.684;2023-05-17T13:18:11;101362.97;;;14.93;nan
70468;BME280;57934;51.532;7.684;2023-05-17T13:20:38;101356.28;;;15.03;nan
70468;BME280;57934;51.532;7.684;2023-05-17T13:23:05;101357.91;;;14.70;nan
70468;BME280;57934;51.532;7.684;2023-05-17T13:25:31;101362.88;;;14.51;nan
70468;BME280;57934;51.532;7.684;2023-05-17T13:27:57;101351.53;;;14.64;nan
70468;BME280;57934;51.532;7.684;2023-05-17T13:30:23;101354.13;;;14.86;nan
70468;BME280;57934;51.532;7.684;2023-05-17T13:32:49;101351.81;;;15.11;nan